sensor_id;sensor_type;location;lat;lon;timestamp;pressure;altitude;pressure_sealevel;temperature;humidity
70248;BME280;57641;51.416;5.506;2023-05-02T00:01:49;102061.72;;;16.92;55.14
70248;BME280;57641;51.416;5.506;2023-05-02T00:04:15;102064.63;;;17.39;53.94
70248;BME280;57641;51.416;5.506;2023-05-02T00:06:41;102066.28;;;17.40;53.52
70248;BME280;57641;51.416;5.506;2023-05-02T00:09:07;102071.88;;;17.54;53.08
70248;BME280;57641;51.416;5.506;2023-05-02T00:11:33;102074.22;;;17.57;52.84
70248;BME280;57641;51.416;5.506;2023-05-02T00:13:58;102080.78;;;17.47;53.22
70248;BME280;57641;51.416;5.506;2023-05-02T00:16:23;102081.94;;;17.12;54.58
70248;BME280;57641;51.416;5.506;2023-05-02T00:18:49;102091.06;;;17.27;53.74
70248;BME280;57641;51.416;5.506;2023-05-02T00:21:15;102089.91;;;17.54;53.00
70248;BME280;57641;51.416;5.506;2023-05-02T00:23:40;102091.22;;;17.17;53.51
70248;BME280;57641;51.416;5.506;2023-05-02T00:26:09;102096.13;;;17.30;53.49
70248;BME280;57641;51.416;5.506;2023-05-02T00:28:35;102096.44;;;17.19;54.01
70248;BME280;57641;51.416;5.506;2023-05-02T00:31:00;102096.41;;;17.03;54.56
70248;BME280;57641;51.416;5.506;2023-05-02T00:33:26;102099.19;;;16.77;55.04
70248;BME280;57641;51.416;5.506;2023-05-02T00:35:51;102101.06;;;16.84;55.24
70248;BME280;57641;51.416;5.506;2023-05-02T00:38:17;102107.84;;;16.97;54.78
70248;BME280;57641;51.416;5.506;2023-05-02T00:40:47;102110.66;;;16.79;54.68
70248;BME280;57641;51.416;5.506;2023-05-02T00:43:13;102103.81;;;17.09;54.19
70248;BME280;57641;51.416;5.506;2023-05-02T00:45:40;102101.13;;;17.09;53.94
70248;BME280;57641;51.416;5.506;2023-05-02T00:48:08;102098.44;;;17.01;54.39
70248;BME280;57641;51.416;5.506;2023-05-02T00:50:36;102106.50;;;17.01;54.64
70248;BME280;57641;51.416;5.506;2023-05-02T00:53:03;102106.50;;;17.01;54.12
70248;BME280;57641;51.416;5.506;2023-05-02T00:55:31;102111.75;;;17.10;54.52
70248;BME280;57641;51.416;5.506;2023-05-02T00:57:57;102116.31;;;17.18;54.21
70248;BME280;57641;51.416;5.506;2023-05-02T01:00:29;102105.72;;;17.33;54.13
70248;BME280;57641;51.416;5.506;2023-05-02T01:03:11;102110.97;;;17.34;53.97
70248;BME280;57641;51.416;5.506;2023-05-02T01:05:51;102112.13;;;17.31;53.76
70248;BME280;57641;51.416;5.506;2023-05-02T01:08:38;102109.44;;;17.31;53.83
70248;BME280;57641;51.416;5.506;2023-05-02T01:11:14;102116.31;;;17.26;54.17
70248;BME280;57641;51.416;5.506;2023-05-02T01:13:42;102109.53;;;16.98;54.55
70248;BME280;57641;51.416;5.506;2023-05-02T01:16:11;102107.91;;;17.13;54.03
70248;BME280;57641;51.416;5.506;2023-05-02T01:18:39;102108.75;;;17.21;54.10
70248;BME280;57641;51.416;5.506;2023-05-02T01:21:07;102111.56;;;16.96;54.79
70248;BME280;57641;51.416;5.506;2023-05-02T01:26:21;102105.88;;;17.31;53.86
70248;BME280;57641;51.416;5.506;2023-05-02T01:28:59;102111.75;;;17.02;54.47
70248;BME280;57641;51.416;5.506;2023-05-02T01:31:25;102106.72;;;17.15;54.21
70248;BME280;57641;51.416;5.506;2023-05-02T01:33:53;102107.41;;;17.25;53.72
70248;BME280;57641;51.416;5.506;2023-05-02T01:36:22;102116.59;;;16.99;54.69
70248;BME280;57641;51.416;5.506;2023-05-02T01:38:51;102113.97;;;17.23;54.18
70248;BME280;57641;51.416;5.506;2023-05-02T01:41:19;102110.75;;;17.11;54.36
70248;BME280;57641;51.416;5.506;2023-05-02T01:43:46;102113.00;;;16.74;55.19
70248;BME280;57641;51.416;5.506;2023-05-02T01:46:13;102124.13;;;16.87;54.62
70248;BME280;57641;51.416;5.506;2023-05-02T01:48:43;102117.94;;;16.95;54.08
70248;BME280;57641;51.416;5.506;2023-05-02T01:51:11;102122.19;;;16.97;53.68
70248;BME280;57641;51.416;5.506;2023-05-02T01:53:37;102132.25;;;16.95;54.00
70248;BME280;57641;51.416;5.506;2023-05-02T01:56:04;102127.16;;;16.84;53.90
70248;BME280;57641;51.416;5.506;2023-05-02T01:58:32;102136.78;;;16.86;53.67
70248;BME280;57641;51.416;5.506;2023-05-02T02:00:59;102139.66;;;16.93;52.92
70248;BME280;57641;51.416;5.506;2023-05-02T02:03:28;102141.63;;;16.83;52.74
70248;BME280;57641;51.416;5.506;2023-05-02T02:05:55;102139.75;;;16.16;54.59
70248;BME280;57641;51.416;5.506;2023-05-02T02:08:21;102139.81;;;16.58;53.42
70248;BME280;57641;51.416;5.506;2023-05-02T02:10:53;102146.31;;;16.47;53.91
70248;BME280;57641;51.416;5.506;2023-05-02T02:13:34;102148.44;;;16.35;54.44
70248;BME280;57641;51.416;5.506;2023-05-02T02:16:03;102153.94;;;16.26;54.28
70248;BME280;57641;51.416;5.506;2023-05-02T02:18:35;102155.72;;;16.43;54.24
70248;BME280;57641;51.416;5.506;2023-05-02T02:21:05;102163.81;;;16.43;54.46
70248;BME280;57641;51.416;5.506;2023-05-02T02:23:33;102165.59;;;16.60;53.90
70248;BME280;57641;51.416;5.506;2023-05-02T02:26:00;102170.91;;;16.52;53.79
70248;BME280;57641;51.416;5.506;2023-05-02T02:28:27;102173.38;;;16.63;53.85
70248;BME280;57641;51.416;5.506;2023-05-02T02:30:52;102167.72;;;16.74;53.59
70248;BME280;57641;51.416;5.506;2023-05-02T02:33:18;102157.28;;;16.79;53.75
70248;BME280;57641;51.416;5.506;2023-05-02T02:35:50;102160.13;;;16.78;53.79
70248;BME280;57641;51.416;5.506;2023-05-02T02:39:16;102170.41;;;16.74;53.77
70248;BME280;57641;51.416;5.506;2023-05-02T02:41:37;102180.53;;;16.55;54.09
70248;BME280;57641;51.416;5.506;2023-05-02T02:44:09;102180.75;;;16.61;54.29
70248;BME280;57641;51.416;5.506;2023-05-02T02:46:47;102177.66;;;16.56;54.58
70248;BME280;57641;51.416;5.506;2023-05-02T02:49:43;102179.34;;;16.57;54.83
70248;BME280;57641;51.416;5.506;2023-05-02T02:54:46;102175.97;;;16.55;54.95
70248;BME280;57641;51.416;5.506;2023-05-02T02:57:17;102185.00;;;16.46;55.00
70248;BME280;57641;51.416;5.506;2023-05-02T02:59:53;102181.03;;;16.76;54.15
70248;BME280;57641;51.416;5.506;2023-05-02T03:02:27;102183.41;;;16.10;55.94
70248;BME280;57641;51.416;5.506;2023-05-02T03:04:53;102187.03;;;16.44;55.44
70248;BME280;57641;51.416;5.506;2023-05-02T03:07:20;102200.56;;;16.34;55.44
70248;BME280;57641;51.416;5.506;2023-05-02T03:09:46;102204.09;;;16.09;56.42
70248;BME280;57641;51.416;5.506;2023-05-02T03:12:13;102203.31;;;16.17;56.07
70248;BME280;57641;51.416;5.506;2023-05-02T03:14:39;102204.91;;;16.27;55.90
70248;BME280;57641;51.416;5.506;2023-05-02T03:17:05;102213.59;;;16.39;55.30
70248;BME280;57641;51.416;5.506;2023-05-02T03:19:35;102208.28;;;16.29;56.05
70248;BME280;57641;51.416;5.506;2023-05-02T03:22:02;102213.75;;;16.20;56.42
70248;BME280;57641;51.416;5.506;2023-05-02T03:24:28;102222.09;;;16.34;56.36
70248;BME280;57641;51.416;5.506;2023-05-02T03:26:57;102221.00;;;16.19;56.65
70248;BME280;57641;51.416;5.506;2023-05-02T03:29:24;102224.06;;;16.24;56.62
70248;BME280;57641;51.416;5.506;2023-05-02T03:31:50;102227.66;;;16.07;57.08
70248;BME280;57641;51.416;5.506;2023-05-02T03:34:16;102227.69;;;16.15;56.54
70248;BME280;57641;51.416;5.506;2023-05-02T03:36:41;102224.88;;;16.42;55.99
70248;BME280;57641;51.416;5.506;2023-05-02T03:39:07;102227.38;;;16.18;56.25
70248;BME280;57641;51.416;5.506;2023-05-02T03:41:32;102227.97;;;16.30;56.08
70248;BME280;57641;51.416;5.506;2023-05-02T03:43:57;102220.25;;;16.09;57.16
70248;BME280;57641;51.416;5.506;2023-05-02T03:46:23;102228.88;;;16.38;55.98
70248;BME280;57641;51.416;5.506;2023-05-02T03:48:49;102217.28;;;16.38;56.08
70248;BME280;57641;51.416;5.506;2023-05-02T03:51:15;102225.06;;;16.23;56.76
70248;BME280;57641;51.416;5.506;2023-05-02T03:53:40;102227.91;;;16.22;56.55
70248;BME280;57641;51.416;5.506;2023-05-02T03:56:06;102234.66;;;16.26;56.77
70248;BME280;57641;51.416;5.506;2023-05-02T03:58:33;102231.03;;;16.35;56.17
70248;BME280;57641;51.416;5.506;2023-05-02T04:01:00;102242.72;;;16.43;56.48
70248;BME280;57641;51.416;5.506;2023-05-02T04:03:26;102239.41;;;16.50;56.01
70248;BME280;57641;51.416;5.506;2023-05-02T04:05:52;102241.78;;;16.35;56.31
70248;BME280;57641;51.416;5.506;2023-05-02T04:08:18;102241.28;;;16.57;56.05
70248;BME280;57641;51.416;5.506;2023-05-02T04:10:43;102249.75;;;16.62;55.99
70248;BME280;57641;51.416;5.506;2023-05-02T04:13:09;102247.06;;;16.62;55.70
70248;BME280;57641;51.416;5.506;2023-05-02T04:15:34;102245.06;;;16.64;55.66
70248;BME280;57641;51.416;5.506;2023-05-02T04:18:00;102258.69;;;16.45;56.15
70248;BME280;57641;51.416;5.506;2023-05-02T04:20:25;102252.31;;;16.64;55.67
70248;BME280;57641;51.416;5.506;2023-05-02T04:22:51;102262.22;;;16.45;56.80
70248;BME280;57641;51.416;5.506;2023-05-02T04:25:17;102266.34;;;16.32;56.34
70248;BME280;57641;51.416;5.506;2023-05-02T04:27:43;102265.41;;;16.41;56.76
70248;BME280;57641;51.416;5.506;2023-05-02T04:30:08;102267.81;;;16.26;56.58
70248;BME280;57641;51.416;5.506;2023-05-02T04:32:35;102264.78;;;16.47;56.45
70248;BME280;57641;51.416;5.506;2023-05-02T04:35:01;102283.66;;;16.55;56.20
70248;BME280;57641;51.416;5.506;2023-05-02T04:37:26;102281.28;;;16.26;56.73
70248;BME280;57641;51.416;5.506;2023-05-02T04:39:51;102281.56;;;16.23;56.70
70248;BME280;57641;51.416;5.506;2023-05-02T04:42:17;102297.09;;;15.76;56.57
70248;BME280;57641;51.416;5.506;2023-05-02T04:44:42;102295.72;;;16.08;55.52
70248;BME280;57641;51.416;5.506;2023-05-02T04:47:08;102298.78;;;16.13;55.41
70248;BME280;57641;51.416;5.506;2023-05-02T04:49:33;102308.72;;;15.94;54.88
70248;BME280;57641;51.416;5.506;2023-05-02T04:51:59;102314.34;;;16.01;54.67
70248;BME280;57641;51.416;5.506;2023-05-02T04:54:24;102326.94;;;16.00;52.84
70248;BME280;57641;51.416;5.506;2023-05-02T04:56:50;102325.63;;;16.04;52.57
70248;BME280;57641;51.416;5.506;2023-05-02T04:59:15;102337.75;;;15.73;51.59
70248;BME280;57641;51.416;5.506;2023-05-02T05:01:41;102332.69;;;15.60;51.99
70248;BME280;57641;51.416;5.506;2023-05-02T05:04:07;102333.50;;;15.43;51.13
70248;BME280;57641;51.416;5.506;2023-05-02T05:06:32;102339.50;;;15.82;50.77
70248;BME280;57641;51.416;5.506;2023-05-02T05:08:57;102353.53;;;15.58;49.99
70248;BME280;57641;51.416;5.506;2023-05-02T05:11:24;102357.88;;;15.69;49.36
70248;BME280;57641;51.416;5.506;2023-05-02T05:13:50;102361.09;;;15.73;49.91
70248;BME280;57641;51.416;5.506;2023-05-02T05:16:16;102374.22;;;14.92;49.55
70248;BME280;57641;51.416;5.506;2023-05-02T05:18:41;102374.38;;;15.00;50.25
70248;BME280;57641;51.416;5.506;2023-05-02T05:21:08;102371.44;;;14.84;50.03
70248;BME280;57641;51.416;5.506;2023-05-02T05:23:34;102370.31;;;15.33;49.11
70248;BME280;57641;51.416;5.506;2023-05-02T05:26:13;102389.75;;;15.45;48.94
70248;BME280;57641;51.416;5.506;2023-05-02T05:28:42;102383.59;;;14.50;50.82
70248;BME280;57641;51.416;5.506;2023-05-02T05:31:09;102386.66;;;15.40;49.66
70248;BME280;57641;51.416;5.506;2023-05-02T05:33:36;102397.22;;;15.60;48.77
70248;BME280;57641;51.416;5.506;2023-05-02T05:36:07;102398.22;;;15.50;49.25
70248;BME280;57641;51.416;5.506;2023-05-02T05:38:33;102394.22;;;15.73;48.12
70248;BME280;57641;51.416;5.506;2023-05-02T05:40:59;102407.69;;;15.63;48.23
70248;BME280;57641;51.416;5.506;2023-05-02T05:43:26;102401.34;;;15.55;48.52
70248;BME280;57641;51.416;5.506;2023-05-02T05:45:52;102398.97;;;15.42;48.81
70248;BME280;57641;51.416;5.506;2023-05-02T05:48:18;102397.41;;;15.59;48.55
70248;BME280;57641;51.416;5.506;2023-05-02T05:50:44;102413.75;;;15.75;48.06
70248;BME280;57641;51.416;5.506;2023-05-02T05:53:10;102400.72;;;15.71;47.73
70248;BME280;57641;51.416;5.506;2023-05-02T05:55:35;102411.13;;;15.83;48.25
70248;BME280;57641;51.416;5.506;2023-05-02T05:58:03;102418.56;;;15.99;47.81
70248;BME280;57641;51.416;5.506;2023-05-02T06:00:28;102420.13;;;16.01;46.47
70248;BME280;57641;51.416;5.506;2023-05-02T06:02:54;102423.28;;;15.87;47.14
70248;BME280;57641;51.416;5.506;2023-05-02T06:05:19;102425.50;;;15.74;46.91
70248;BME280;57641;51.416;5.506;2023-05-02T06:07:45;102423.34;;;15.78;46.81
70248;BME280;57641;51.416;5.506;2023-05-02T06:10:10;102432.34;;;15.59;46.40
70248;BME280;57641;51.416;5.506;2023-05-02T06:12:36;102434.97;;;15.12;47.59
70248;BME280;57641;51.416;5.506;2023-05-02T06:15:01;102435.47;;;15.45;46.44
70248;BME280;57641;51.416;5.506;2023-05-02T06:17:27;102441.34;;;15.68;45.50
70248;BME280;57641;51.416;5.506;2023-05-02T06:19:52;102441.09;;;15.61;45.95
70248;BME280;57641;51.416;5.506;2023-05-02T06:22:17;102443.88;;;15.79;45.46
70248;BME280;57641;51.416;5.506;2023-05-02T06:24:43;102449.78;;;15.82;45.25
70248;BME280;57641;51.416;5.506;2023-05-02T06:27:08;102445.63;;;15.60;45.64
70248;BME280;57641;51.416;5.506;2023-05-02T06:29:34;102448.06;;;15.54;46.03
70248;BME280;57641;51.416;5.506;2023-05-02T06:32:00;102454.34;;;15.72;45.55
70248;BME280;57641;51.416;5.506;2023-05-02T06:34:25;102454.94;;;15.66;45.38
70248;BME280;57641;51.416;5.506;2023-05-02T06:36:54;102470.63;;;15.80;45.00
70248;BME280;57641;51.416;5.506;2023-05-02T06:39:23;102459.56;;;15.83;44.99
70248;BME280;57641;51.416;5.506;2023-05-02T06:41:48;102459.25;;;15.86;45.86
70248;BME280;57641;51.416;5.506;2023-05-02T06:44:13;102468.47;;;16.11;45.28
70248;BME280;57641;51.416;5.506;2023-05-02T06:46:39;102478.50;;;15.91;44.86
70248;BME280;57641;51.416;5.506;2023-05-02T06:49:05;102491.31;;;16.07;45.15
70248;BME280;57641;51.416;5.506;2023-05-02T06:51:30;102485.59;;;15.83;45.42
70248;BME280;57641;51.416;5.506;2023-05-02T06:53:56;102487.28;;;15.84;45.57
70248;BME280;57641;51.416;5.506;2023-05-02T06:56:23;102491.69;;;15.85;45.60
70248;BME280;57641;51.416;5.506;2023-05-02T06:58:50;102490.69;;;15.86;45.80
70248;BME280;57641;51.416;5.506;2023-05-02T07:01:16;102493.22;;;15.87;46.35
70248;BME280;57641;51.416;5.506;2023-05-02T07:03:41;102494.22;;;15.86;46.43
70248;BME280;57641;51.416;5.506;2023-05-02T07:06:06;102497.88;;;15.95;46.67
70248;BME280;57641;51.416;5.506;2023-05-02T07:08:32;102501.16;;;15.89;46.89
70248;BME280;57641;51.416;5.506;2023-05-02T07:10:57;102507.28;;;15.72;47.84
70248;BME280;57641;51.416;5.506;2023-05-02T07:13:23;102511.94;;;15.79;47.67
70248;BME280;57641;51.416;5.506;2023-05-02T07:15:48;102512.84;;;15.97;47.33
70248;BME280;57641;51.416;5.506;2023-05-02T07:18:14;102512.84;;;16.07;46.72
70248;BME280;57641;51.416;5.506;2023-05-02T07:20:39;102520.28;;;15.86;46.63
70248;BME280;57641;51.416;5.506;2023-05-02T07:23:06;102532.63;;;15.79;46.84
70248;BME280;57641;51.416;5.506;2023-05-02T07:25:33;102530.16;;;15.95;46.94
70248;BME280;57641;51.416;5.506;2023-05-02T07:27:59;102530.31;;;16.21;46.02
70248;BME280;57641;51.416;5.506;2023-05-02T07:30:24;102537.06;;;15.97;45.59
70248;BME280;57641;51.416;5.506;2023-05-02T07:32:50;102542.78;;;16.22;45.42
70248;BME280;57641;51.416;5.506;2023-05-02T07:35:15;102538.94;;;16.24;45.29
70248;BME280;57641;51.416;5.506;2023-05-02T07:37:41;102555.25;;;15.86;45.87
70248;BME280;57641;51.416;5.506;2023-05-02T07:40:07;102544.38;;;16.15;45.59
70248;BME280;57641;51.416;5.506;2023-05-02T07:42:33;102552.78;;;16.39;45.77
70248;BME280;57641;51.416;5.506;2023-05-02T07:45:00;102553.78;;;16.56;45.74
70248;BME280;57641;51.416;5.506;2023-05-02T07:47:26;102558.78;;;16.51;44.54
70248;BME280;57641;51.416;5.506;2023-05-02T07:49:55;102552.97;;;16.28;45.38
70248;BME280;57641;51.416;5.506;2023-05-02T07:52:21;102551.06;;;16.38;45.35
70248;BME280;57641;51.416;5.506;2023-05-02T07:54:47;102565.16;;;16.59;43.97
70248;BME280;57641;51.416;5.506;2023-05-02T07:57:14;102561.47;;;16.51;42.84
70248;BME280;57641;51.416;5.506;2023-05-02T07:59:39;102561.16;;;16.63;42.82
70248;BME280;57641;51.416;5.506;2023-05-02T08:02:05;102557.44;;;16.92;42.83
70248;BME280;57641;51.416;5.506;2023-05-02T08:04:31;102562.84;;;16.82;42.53
70248;BME280;57641;51.416;5.506;2023-05-02T08:06:57;102566.19;;;16.94;42.34
70248;BME280;57641;51.416;5.506;2023-05-02T08:09:22;102560.91;;;17.02;42.41
70248;BME280;57641;51.416;5.506;2023-05-02T08:11:48;102566.13;;;17.21;42.34
70248;BME280;57641;51.416;5.506;2023-05-02T08:14:14;102571.81;;;17.00;41.03
70248;BME280;57641;51.416;5.506;2023-05-02T08:16:41;102565.34;;;16.93;40.97
70248;BME280;57641;51.416;5.506;2023-05-02T08:19:06;102568.88;;;16.76;41.24
70248;BME280;57641;51.416;5.506;2023-05-02T08:21:32;102574.72;;;16.89;41.65
70248;BME280;57641;51.416;5.506;2023-05-02T08:23:58;102582.88;;;16.79;42.35
70248;BME280;57641;51.416;5.506;2023-05-02T08:26:24;102587.09;;;16.82;42.38
70248;BME280;57641;51.416;5.506;2023-05-02T08:28:50;102596.81;;;16.75;42.94
70248;BME280;57641;51.416;5.506;2023-05-02T08:31:17;102594.97;;;16.93;42.47
70248;BME280;57641;51.416;5.506;2023-05-02T08:33:42;102602.41;;;16.81;41.84
70248;BME280;57641;51.416;5.506;2023-05-02T08:36:15;102598.91;;;16.81;41.71
70248;BME280;57641;51.416;5.506;2023-05-02T08:38:42;102614.09;;;16.72;41.76
70248;BME280;57641;51.416;5.506;2023-05-02T08:41:16;102601.00;;;16.50;42.04
70248;BME280;57641;51.416;5.506;2023-05-02T08:43:42;102615.16;;;16.62;42.11
70248;BME280;57641;51.416;5.506;2023-05-02T08:46:13;102619.63;;;16.71;41.59
70248;BME280;57641;51.416;5.506;2023-05-02T08:48:41;102619.44;;;16.82;41.19
70248;BME280;57641;51.416;5.506;2023-05-02T08:51:12;102632.03;;;16.54;40.57
70248;BME280;57641;51.416;5.506;2023-05-02T08:53:39;102630.97;;;16.74;40.40
70248;BME280;57641;51.416;5.506;2023-05-02T08:56:09;102637.94;;;16.95;40.05
70248;BME280;57641;51.416;5.506;2023-05-02T08:58:36;102632.41;;;16.96;39.68
70248;BME280;57641;51.416;5.506;2023-05-02T09:01:03;102636.38;;;16.92;40.19
70248;BME280;57641;51.416;5.506;2023-05-02T09:03:34;102636.94;;;16.96;40.48
70248;BME280;57641;51.416;5.506;2023-05-02T09:06:09;102636.13;;;17.13;39.92
70248;BME280;57641;51.416;5.506;2023-05-02T09:08:35;102637.06;;;17.21;39.39
70248;BME280;57641;51.416;5.506;2023-05-02T09:11:02;102635.91;;;16.79;39.22
70248;BME280;57641;51.416;5.506;2023-05-02T09:18:37;102649.28;;;17.16;40.03
70248;BME280;57641;51.416;5.506;2023-05-02T09:21:13;102660.25;;;17.32;39.10
70248;BME280;57641;51.416;5.506;2023-05-02T09:23:56;102657.00;;;17.46;38.70
70248;BME280;57641;51.416;5.506;2023-05-02T09:26:29;102662.91;;;17.59;38.93
70248;BME280;57641;51.416;5.506;2023-05-02T09:28:57;102678.63;;;17.64;37.89
70248;BME280;57641;51.416;5.506;2023-05-02T09:31:35;102671.28;;;17.39;36.42
70248;BME280;57641;51.416;5.506;2023-05-02T09:34:12;102668.41;;;17.40;36.40
70248;BME280;57641;51.416;5.506;2023-05-02T09:36:45;102666.03;;;17.55;37.05
70248;BME280;57641;51.416;5.506;2023-05-02T09:39:13;102670.03;;;17.33;36.60
70248;BME280;57641;51.416;5.506;2023-05-02T09:41:46;102669.50;;;17.47;36.74
70248;BME280;57641;51.416;5.506;2023-05-02T09:44:17;102668.13;;;17.61;38.04
70248;BME280;57641;51.416;5.506;2023-05-02T09:46:48;102676.81;;;17.90;37.54
70248;BME280;57641;51.416;5.506;2023-05-02T09:49:14;102674.50;;;17.78;36.50
70248;BME280;57641;51.416;5.506;2023-05-02T09:51:43;102678.41;;;18.01;36.63
70248;BME280;57641;51.416;5.506;2023-05-02T09:54:09;102678.63;;;18.07;36.58
70248;BME280;57641;51.416;5.506;2023-05-02T09:56:54;102685.63;;;18.18;36.49
70248;BME280;57641;51.416;5.506;2023-05-02T09:59:21;102665.50;;;18.38;36.25
70248;BME280;57641;51.416;5.506;2023-05-02T10:01:54;102671.91;;;18.37;36.13
70248;BME280;57641;51.416;5.506;2023-05-02T10:04:21;102669.06;;;18.47;36.88
70248;BME280;57641;51.416;5.506;2023-05-02T10:06:47;102675.41;;;18.55;35.50
70248;BME280;57641;51.416;5.506;2023-05-02T10:09:15;102675.13;;;18.41;34.55
70248;BME280;57641;51.416;5.506;2023-05-02T10:11:43;102679.41;;;18.26;34.37
70248;BME280;57641;51.416;5.506;2023-05-02T10:14:09;102685.16;;;18.23;35.04
70248;BME280;57641;51.416;5.506;2023-05-02T10:16:38;102682.00;;;18.35;35.16
70248;BME280;57641;51.416;5.506;2023-05-02T10:19:08;102689.81;;;18.38;34.17
70248;BME280;57641;51.416;5.506;2023-05-02T10:21:38;102688.81;;;18.39;34.63
70248;BME280;57641;51.416;5.506;2023-05-02T10:24:04;102688.22;;;18.28;35.09
70248;BME280;57641;51.416;5.506;2023-05-02T10:26:33;102690.66;;;18.39;35.31
70248;BME280;57641;51.416;5.506;2023-05-02T10:28:59;102689.97;;;18.37;34.50
70248;BME280;57641;51.416;5.506;2023-05-02T10:31:27;102684.34;;;18.30;35.28
70248;BME280;57641;51.416;5.506;2023-05-02T10:33:58;102684.88;;;18.34;35.34
70248;BME280;57641;51.416;5.506;2023-05-02T10:36:24;102677.28;;;18.55;34.93
70248;BME280;57641;51.416;5.506;2023-05-02T10:38:51;102695.03;;;18.14;35.26
70248;BME280;57641;51.416;5.506;2023-05-02T10:41:26;102699.97;;;18.44;35.49
70248;BME280;57641;51.416;5.506;2023-05-02T10:43:52;102699.63;;;18.47;35.31
70248;BME280;57641;51.416;5.506;2023-05-02T10:46:35;102694.38;;;18.46;35.12
70248;BME280;57641;51.416;5.506;2023-05-02T10:49:09;102694.38;;;18.46;34.99
70248;BME280;57641;51.416;5.506;2023-05-02T10:51:36;102695.59;;;18.51;35.57
70248;BME280;57641;51.416;5.506;2023-05-02T11:05:08;102691.81;;;19.04;33.74
70248;BME280;57641;51.416;5.506;2023-05-02T11:07:34;102692.00;;;19.03;33.27
70248;BME280;57641;51.416;5.506;2023-05-02T11:12:52;102696.28;;;18.71;33.96
70248;BME280;57641;51.416;5.506;2023-05-02T11:18:09;102715.06;;;18.29;35.36
70248;BME280;57641;51.416;5.506;2023-05-02T11:20:37;102715.53;;;18.50;34.58
70248;BME280;57641;51.416;5.506;2023-05-02T11:25:53;102712.66;;;17.83;35.64
70248;BME280;57641;51.416;5.506;2023-05-02T11:28:44;102714.13;;;17.77;35.05
70248;BME280;57641;51.416;5.506;2023-05-02T11:33:57;102707.28;;;18.26;33.84
70248;BME280;57641;51.416;5.506;2023-05-02T11:36:27;102717.06;;;18.53;33.08
70248;BME280;57641;51.416;5.506;2023-05-02T11:38:54;102708.38;;;19.01;33.38
70248;BME280;57641;51.416;5.506;2023-05-02T11:41:19;102702.41;;;19.39;32.99
70248;BME280;57641;51.416;5.506;2023-05-02T11:43:45;102701.31;;;19.16;32.62
70248;BME280;57641;51.416;5.506;2023-05-02T11:46:10;102695.97;;;19.24;32.46
70248;BME280;57641;51.416;5.506;2023-05-02T11:48:37;102709.41;;;19.58;32.40
70248;BME280;57641;51.416;5.506;2023-05-02T11:51:02;102706.53;;;19.60;32.06
70248;BME280;57641;51.416;5.506;2023-05-02T11:53:29;102706.53;;;19.68;30.97
70248;BME280;57641;51.416;5.506;2023-05-02T11:56:01;102712.13;;;19.66;31.42
70248;BME280;57641;51.416;5.506;2023-05-02T11:58:29;102706.38;;;19.69;31.74
70248;BME280;57641;51.416;5.506;2023-05-02T12:00:56;102713.44;;;19.62;30.61
70248;BME280;57641;51.416;5.506;2023-05-02T12:05:52;102716.16;;;19.54;31.65
70248;BME280;57641;51.416;5.506;2023-05-02T12:10:49;102718.00;;;19.62;31.37
70248;BME280;57641;51.416;5.506;2023-05-02T12:13:16;102713.47;;;19.54;30.89
70248;BME280;57641;51.416;5.506;2023-05-02T12:15:41;102718.81;;;19.38;30.63
70248;BME280;57641;51.416;5.506;2023-05-02T12:18:07;102724.94;;;19.48;30.01
70248;BME280;57641;51.416;5.506;2023-05-02T12:20:34;102721.56;;;19.54;30.22
70248;BME280;57641;51.416;5.506;2023-05-02T12:23:01;102717.03;;;19.79;30.83
70248;BME280;57641;51.416;5.506;2023-05-02T12:25:26;102725.66;;;19.66;30.68
70248;BME280;57641;51.416;5.506;2023-05-02T12:28:00;102726.66;;;19.73;30.46
70248;BME280;57641;51.416;5.506;2023-05-02T12:30:27;102730.25;;;19.82;30.42
70248;BME280;57641;51.416;5.506;2023-05-02T12:32:57;102733.28;;;19.71;30.21
70248;BME280;57641;51.416;5.506;2023-05-02T12:35:23;102738.84;;;19.94;30.00
70248;BME280;57641;51.416;5.506;2023-05-02T12:37:49;102740.03;;;19.99;30.21
70248;BME280;57641;51.416;5.506;2023-05-02T12:40:15;102737.84;;;19.95;30.17
70248;BME280;57641;51.416;5.506;2023-05-02T12:42:42;102751.22;;;20.04;29.92
70248;BME280;57641;51.416;5.506;2023-05-02T12:45:17;102754.44;;;19.92;29.34
70248;BME280;57641;51.416;5.506;2023-05-02T12:47:46;102751.84;;;19.58;30.68
70248;BME280;57641;51.416;5.506;2023-05-02T12:50:11;102758.09;;;19.58;29.01
70248;BME280;57641;51.416;5.506;2023-05-02T12:52:49;102758.97;;;19.75;29.50
70248;BME280;57641;51.416;5.506;2023-05-02T12:57:46;102755.44;;;19.99;29.59
70248;BME280;57641;51.416;5.506;2023-05-02T13:00:13;102753.59;;;20.07;29.25
70248;BME280;57641;51.416;5.506;2023-05-02T13:02:40;102757.47;;;20.05;28.87
70248;BME280;57641;51.416;5.506;2023-05-02T13:05:13;102758.16;;;20.07;29.07
70248;BME280;57641;51.416;5.506;2023-05-02T13:07:39;102752.25;;;20.03;29.29
70248;BME280;57641;51.416;5.506;2023-05-02T13:10:04;102757.66;;;20.03;29.14
70248;BME280;57641;51.416;5.506;2023-05-02T13:12:30;102752.38;;;20.10;29.94
70248;BME280;57641;51.416;5.506;2023-05-02T13:14:55;102753.44;;;19.93;28.64
70248;BME280;57641;51.416;5.506;2023-05-02T13:17:21;102754.47;;;19.41;29.74
70248;BME280;57641;51.416;5.506;2023-05-02T13:19:46;102748.69;;;19.87;29.72
70248;BME280;57641;51.416;5.506;2023-05-02T13:22:12;102751.22;;;19.96;28.40
70248;BME280;57641;51.416;5.506;2023-05-02T13:24:37;102748.69;;;19.87;28.37
70248;BME280;57641;51.416;5.506;2023-05-02T13:27:02;102753.06;;;20.60;29.02
70248;BME280;57641;51.416;5.506;2023-05-02T13:29:28;102753.00;;;20.77;27.76
70248;BME280;57641;51.416;5.506;2023-05-02T13:31:53;102756.41;;;19.57;28.51
70248;BME280;57641;51.416;5.506;2023-05-02T13:34:19;102761.88;;;20.22;28.39